createdAt,value
2022-10-11T00:00:44.064Z,98401.13
2022-10-11T00:03:31.054Z,98406.00
2022-10-11T00:05:58.501Z,98404.47
2022-10-11T00:08:25.751Z,98402.22
2022-10-11T00:11:02.128Z,98403.00
2022-10-11T00:13:30.056Z,98402.78
2022-10-11T00:15:57.980Z,98400.16
2022-10-11T00:18:43.262Z,98399.91
2022-10-11T00:21:15.089Z,98406.38
2022-10-11T00:23:43.817Z,98406.38
2022-10-11T00:26:11.965Z,98407.34
2022-10-11T00:28:40.057Z,98401.84
2022-10-11T00:31:14.970Z,98396.00
2022-10-11T00:33:42.783Z,98406.13
2022-10-11T00:36:13.764Z,98399.81
2022-10-11T00:38:41.494Z,98400.63
2022-10-11T00:41:08.893Z,98398.00
2022-10-11T00:43:36.792Z,98403.25
2022-10-11T00:46:18.972Z,98408.63
2022-10-11T00:49:17.912Z,98404.94
2022-10-11T00:51:55.364Z,98402.31
2022-10-11T00:54:27.318Z,98404.72
2022-10-11T00:57:03.071Z,98405.63
2022-10-11T00:59:40.453Z,98412.78
2022-10-11T01:02:10.372Z,98409.72
2022-10-11T01:04:37.755Z,98405.53
2022-10-11T01:07:05.160Z,98414.47
2022-10-11T01:09:33.460Z,98399.34
2022-10-11T01:12:06.896Z,98405.63
2022-10-11T01:15:07.255Z,98407.41
2022-10-11T01:17:52.689Z,98409.34
2022-10-11T01:20:43.293Z,98406.72
2022-10-11T01:23:34.721Z,98399.19
2022-10-11T01:26:23.679Z,98400.38
2022-10-11T01:29:35.268Z,98401.59
2022-10-11T01:32:18.758Z,98416.13
2022-10-11T01:35:01.312Z,98410.78
2022-10-11T01:37:37.691Z,98403.00
2022-10-11T01:40:16.184Z,98410.88
2022-10-11T01:42:45.478Z,98411.63
2022-10-11T01:45:19.875Z,98412.94
2022-10-11T01:47:47.340Z,98419.50
2022-10-11T01:50:50.789Z,98402.53
2022-10-11T01:53:59.366Z,98410.91
2022-10-11T01:56:52.356Z,98406.13
2022-10-11T01:59:26.126Z,98408.75
2022-10-11T02:02:47.166Z,98400.28
2022-10-11T02:05:38.045Z,98413.06
2022-10-11T02:08:56.138Z,98416.28
2022-10-11T02:11:29.886Z,98402.22
2022-10-11T02:14:15.505Z,98416.88
2022-10-11T02:17:04.064Z,98408.53
2022-10-11T02:19:42.754Z,98404.72
2022-10-11T02:22:43.222Z,98412.25
2022-10-11T02:25:18.919Z,98412.34
2022-10-11T02:27:48.856Z,98410.22
2022-10-11T02:30:17.278Z,98416.66
2022-10-11T02:32:47.569Z,98403.53
2022-10-11T02:35:15.648Z,98413.53
2022-10-11T02:37:53.225Z,98413.09
2022-10-11T02:40:23.071Z,98420.59
2022-10-11T02:43:30.243Z,98413.31
2022-10-11T02:46:01.415Z,98417.13
2022-10-11T02:48:30.622Z,98419.88
2022-10-11T02:50:59.100Z,98415.00
2022-10-11T02:53:27.287Z,98423.34
2022-10-11T02:55:56.040Z,98412.38
2022-10-11T02:58:24.781Z,98419.28
2022-10-11T03:00:52.059Z,98421.66
2022-10-11T03:03:19.577Z,98419.88
2022-10-11T03:05:46.966Z,98426.22
2022-10-11T03:08:17.034Z,98436.00
2022-10-11T03:10:44.578Z,98437.53
2022-10-11T03:13:15.967Z,98438.00
2022-10-11T03:16:01.914Z,98437.19
2022-10-11T03:18:30.758Z,98442.44
2022-10-11T03:20:58.148Z,98435.03
2022-10-11T03:23:25.362Z,98438.00
2022-10-11T03:25:52.615Z,98447.69
2022-10-11T03:28:20.879Z,98443.59
2022-10-11T03:30:50.148Z,98449.09
2022-10-11T03:33:17.784Z,98448.50
2022-10-11T03:35:47.529Z,98449.72
2022-10-11T03:38:19.752Z,98455.31
2022-10-11T03:40:47.630Z,98455.94
2022-10-11T03:43:15.008Z,98456.97
2022-10-11T03:45:45.244Z,98461.50
2022-10-11T03:48:12.760Z,98471.69
2022-10-11T03:50:40.401Z,98468.09
2022-10-11T03:53:08.881Z,98464.97
2022-10-11T03:55:40.319Z,98462.13
2022-10-11T03:58:08.679Z,98467.59
2022-10-11T04:00:36.878Z,98462.72
2022-10-11T04:03:04.380Z,98463.22
2022-10-11T04:05:31.724Z,98462.97
2022-10-11T04:07:58.902Z,98471.09
2022-10-11T04:10:26.375Z,98466.44
2022-10-11T04:12:53.593Z,98475.28
2022-10-11T04:15:20.902Z,98472.53
2022-10-11T04:17:48.271Z,98479.31
2022-10-11T04:20:15.583Z,98480.78
2022-10-11T04:22:42.971Z,98483.28
2022-10-11T04:25:10.607Z,98481.59
2022-10-11T04:27:37.830Z,98487.31
2022-10-11T04:30:06.908Z,98488.53
2022-10-11T04:32:34.738Z,98488.88
2022-10-11T04:35:01.913Z,98484.22
2022-10-11T04:37:29.129Z,98490.19
2022-10-11T04:39:56.474Z,98490.91
2022-10-11T04:42:23.633Z,98500.09
2022-10-11T04:44:50.878Z,98494.47
2022-10-11T04:47:20.344Z,98492.56
2022-10-11T04:49:47.562Z,98501.16
2022-10-11T04:52:14.887Z,98502.34
2022-10-11T04:54:42.226Z,98508.91
2022-10-11T04:57:09.512Z,98496.88
2022-10-11T04:59:37.200Z,98498.78
2022-10-11T05:02:04.717Z,98505.19
2022-10-11T05:04:32.151Z,98505.19
2022-10-11T05:06:59.383Z,98511.16
2022-10-11T05:09:27.122Z,98504.94
2022-10-11T05:11:54.320Z,98506.13
2022-10-11T05:14:21.483Z,98514.69
2022-10-11T05:16:48.842Z,98511.81
2022-10-11T05:19:16.077Z,98512.75
2022-10-11T05:21:43.271Z,98510.03
2022-10-11T05:24:10.986Z,98522.47
2022-10-11T05:26:38.206Z,98517.03
2022-10-11T05:29:05.506Z,98526.84
2022-10-11T05:31:33.233Z,98538.72
2022-10-11T05:34:00.485Z,98540.38
2022-10-11T05:36:27.701Z,98537.56
2022-10-11T05:38:55.255Z,98531.69
2022-10-11T05:41:22.607Z,98535.06
2022-10-11T05:43:54.791Z,98536.28
2022-10-11T05:46:22.429Z,98536.91
2022-10-11T05:48:49.623Z,98547.16
2022-10-11T05:51:16.826Z,98551.34
2022-10-11T05:53:44.232Z,98556.38
2022-10-11T05:56:21.928Z,98559.00
2022-10-11T05:58:51.224Z,98577.16
2022-10-11T06:01:25.587Z,98584.91
2022-10-11T06:03:53.613Z,98584.78
2022-10-11T06:06:21.709Z,98594.56
2022-10-11T06:08:49.463Z,98594.44
2022-10-11T06:11:25.310Z,98597.03
2022-10-11T06:13:58.227Z,98600.59
2022-10-11T06:16:26.873Z,98604.22
2022-10-11T06:18:56.197Z,98605.44
2022-10-11T06:21:24.947Z,98604.97
2022-10-11T06:23:58.263Z,98607.72
2022-10-11T06:26:27.665Z,98610.69
2022-10-11T06:28:54.909Z,98624.19
2022-10-11T06:31:22.719Z,98616.81
2022-10-11T06:33:49.907Z,98612.41
2022-10-11T06:36:17.899Z,98613.63
2022-10-11T06:38:45.630Z,98613.91
2022-10-11T06:41:33.337Z,98622.94
2022-10-11T06:44:00.767Z,98623.22
2022-10-11T06:46:28.400Z,98621.53
2022-10-11T06:48:56.513Z,98631.81
2022-10-11T06:51:25.416Z,98641.03
2022-10-11T06:53:56.837Z,98636.09
2022-10-11T06:56:26.777Z,98635.56
2022-10-11T06:58:55.487Z,98646.28
2022-10-11T07:01:23.995Z,98641.28
2022-10-11T07:03:53.995Z,98646.75
2022-10-11T07:06:27.615Z,98643.72
2022-10-11T07:08:55.647Z,98647.28
2022-10-11T07:11:27.199Z,98646.38
2022-10-11T07:13:59.432Z,98655.41
2022-10-11T07:16:28.980Z,98655.28
2022-10-11T07:19:00.905Z,98662.53
2022-10-11T07:21:31.502Z,98661.28
2022-10-11T07:24:17.041Z,98663.31
2022-10-11T07:26:44.548Z,98669.31
2022-10-11T07:29:12.775Z,98667.41
2022-10-11T07:31:42.525Z,98668.50
2022-10-11T07:34:10.900Z,98674.50
2022-10-11T07:36:38.133Z,98673.00
2022-10-11T07:39:08.317Z,98682.59
2022-10-11T07:41:39.689Z,98675.53
2022-10-11T07:44:09.085Z,98687.53
2022-10-11T07:46:36.593Z,98685.56
2022-10-11T07:49:03.974Z,98683.53
2022-10-11T07:51:32.864Z,98687.53
2022-10-11T07:54:04.726Z,98691.00
2022-10-11T07:56:34.344Z,98692.56
2022-10-11T07:59:05.542Z,98698.34
2022-10-11T08:01:33.514Z,98701.66
2022-10-11T08:04:01.000Z,98696.16
2022-10-11T08:06:32.643Z,98694.78
2022-10-11T08:09:01.349Z,98702.53
2022-10-11T08:11:35.949Z,98710.09
2022-10-11T08:14:09.093Z,98712.84
2022-10-11T08:16:39.343Z,98710.31
2022-10-11T08:19:07.722Z,98717.91
2022-10-11T08:21:35.101Z,98711.53
2022-10-11T08:24:04.587Z,98713.00
2022-10-11T08:26:34.099Z,98717.50
2022-10-11T08:29:05.339Z,98723.81
2022-10-11T08:31:34.902Z,98736.81
2022-10-11T08:34:02.831Z,98739.13
2022-10-11T08:36:30.047Z,98741.50
2022-10-11T08:38:58.390Z,98742.59
2022-10-11T08:41:41.005Z,98741.50
2022-10-11T08:44:52.155Z,98746.69
2022-10-11T08:47:34.053Z,98759.00
2022-10-11T08:50:03.789Z,98765.72
2022-10-11T08:53:23.989Z,98757.81
2022-10-11T08:55:54.253Z,98761.44
2022-10-11T08:58:41.755Z,98760.78
2022-10-11T09:01:20.551Z,98758.00
2022-10-11T09:03:50.008Z,98766.66
2022-10-11T09:06:48.971Z,98770.13
2022-10-11T09:09:48.924Z,98764.81
2022-10-11T09:12:19.151Z,98766.16
2022-10-11T09:15:24.279Z,98770.53
2022-10-11T09:18:22.122Z,98769.16
2022-10-11T09:21:25.087Z,98779.53
2022-10-11T09:24:08.402Z,98783.44
2022-10-11T09:27:01.554Z,98784.97
2022-10-11T09:29:46.153Z,98785.47
2022-10-11T09:32:20.942Z,98791.81
2022-10-11T09:35:09.423Z,98776.31
2022-10-11T09:38:07.631Z,98785.22
2022-10-11T09:41:02.149Z,98784.03
2022-10-11T09:43:29.443Z,98786.75
2022-10-11T09:45:56.904Z,98783.88
2022-10-11T09:48:39.119Z,98793.69
2022-10-11T09:51:31.655Z,98803.28
2022-10-11T09:54:06.535Z,98804.69
2022-10-11T09:56:40.796Z,98801.06
2022-10-11T09:59:36.245Z,98806.03
2022-10-11T10:02:24.051Z,98811.81
2022-10-11T10:05:09.409Z,98808.00
2022-10-11T10:07:41.102Z,98814.25
2022-10-11T10:10:43.576Z,98804.69
2022-10-11T10:13:24.382Z,98811.03
2022-10-11T10:15:55.963Z,98812.13
2022-10-11T10:18:34.486Z,98814.50
2022-10-11T10:21:04.367Z,98815.22
2022-10-11T10:23:37.427Z,98816.75
2022-10-11T10:26:24.692Z,98814.91
2022-10-11T10:29:16.871Z,98818.56
2022-10-11T10:32:13.334Z,98823.16
2022-10-11T10:35:27.585Z,98822.06
2022-10-11T10:38:51.204Z,98821.63
2022-10-11T10:41:20.019Z,98824.00
2022-10-11T10:44:00.791Z,98824.50
2022-10-11T10:46:34.193Z,98830.78
2022-10-11T10:49:54.219Z,98828.91
2022-10-11T10:52:46.367Z,98837.88
2022-10-11T10:55:34.765Z,98832.25
2022-10-11T10:58:26.583Z,98833.22
2022-10-11T11:01:03.047Z,98832.50
2022-10-11T11:03:51.950Z,98828.25
2022-10-11T11:06:48.347Z,98831.72
2022-10-11T11:09:41.203Z,98832.25
2022-10-11T11:12:38.083Z,98827.94
2022-10-11T11:15:27.175Z,98839.56
2022-10-11T11:18:28.987Z,98836.88
2022-10-11T11:21:28.411Z,98832.22
2022-10-11T11:24:08.506Z,98833.28
2022-10-11T11:27:01.769Z,98827.94
2022-10-11T11:29:55.695Z,98830.63
2022-10-11T11:33:08.533Z,98833.09
2022-10-11T11:35:46.068Z,98830.06
2022-10-11T11:38:59.730Z,98832.53
2022-10-11T11:41:37.002Z,98832.88
2022-10-11T11:44:27.306Z,98824.28
2022-10-11T11:47:11.340Z,98825.84
2022-10-11T11:49:46.575Z,98823.66
2022-10-11T11:52:48.259Z,98826.44
2022-10-11T11:55:42.370Z,98823.22
2022-10-11T11:58:21.893Z,98826.94
2022-10-11T12:01:31.491Z,98832.47
2022-10-11T12:04:11.677Z,98843.84
2022-10-11T12:06:47.878Z,98849.25
2022-10-11T12:09:32.636Z,98844.88
2022-10-11T12:12:05.215Z,98849.13
2022-10-11T12:14:42.642Z,98843.31
2022-10-11T12:17:20.977Z,98844.91
2022-10-11T12:20:31.731Z,98843.44
2022-10-11T12:23:01.137Z,98842.44
2022-10-11T12:25:28.769Z,98846.69
2022-10-11T12:28:21.676Z,98850.75
2022-10-11T12:30:50.874Z,98845.13
2022-10-11T12:33:32.680Z,98835.72
2022-10-11T12:36:31.599Z,98831.75
2022-10-11T12:39:20.825Z,98839.31
2022-10-11T12:41:51.655Z,98840.88
2022-10-11T12:44:18.799Z,98844.00
2022-10-11T12:46:54.748Z,98846.72
2022-10-11T12:49:35.583Z,98836.78
2022-10-11T12:52:17.946Z,98836.91
2022-10-11T12:55:17.826Z,98834.50
2022-10-11T12:58:12.461Z,98834.34
2022-10-11T13:00:39.881Z,98837.56
2022-10-11T13:03:33.651Z,98834.47
2022-10-11T13:06:15.321Z,98830.91
2022-10-11T13:08:50.307Z,98837.72
2022-10-11T13:11:24.341Z,98836.22
2022-10-11T13:14:19.122Z,98835.44
2022-10-11T13:16:57.815Z,98835.16
2022-10-11T13:19:26.990Z,98834.63
2022-10-11T13:21:58.999Z,98831.22
2022-10-11T13:24:36.307Z,98831.09
2022-10-11T13:27:06.235Z,98830.50
2022-10-11T13:29:41.070Z,98836.41
2022-10-11T13:32:22.415Z,98834.31
2022-10-11T13:37:30.671Z,98832.94
2022-10-11T13:39:58.857Z,98830.22
2022-10-11T13:42:32.823Z,98832.56
2022-10-11T13:45:01.204Z,98836.78
2022-10-11T13:47:31.791Z,98832.50
2022-10-11T13:50:32.105Z,98836.31
2022-10-11T13:53:22.108Z,98834.09
2022-10-11T13:55:57.358Z,98837.16
2022-10-11T13:58:32.671Z,98831.34
2022-10-11T14:01:16.655Z,98839.16
2022-10-11T14:03:54.972Z,98834.72
2022-10-11T14:06:22.513Z,98837.34
2022-10-11T14:08:57.031Z,98835.47
2022-10-11T14:11:39.954Z,98836.06
2022-10-11T14:14:35.756Z,98826.28
2022-10-11T14:17:20.314Z,98827.22
2022-10-11T14:20:11.382Z,98821.69
2022-10-11T14:22:39.321Z,98821.47
2022-10-11T14:25:07.099Z,98818.81
2022-10-11T14:27:34.677Z,98822.13
2022-10-11T14:32:53.821Z,98825.41
2022-10-11T14:35:29.949Z,98825.75
2022-10-11T14:37:58.339Z,98832.75
2022-10-11T14:40:30.491Z,98831.06
2022-10-11T14:42:58.091Z,98830.34
2022-10-11T14:45:26.326Z,98835.03
2022-10-11T14:47:53.681Z,98834.75
2022-10-11T14:51:00.974Z,98837.16
2022-10-11T14:53:28.324Z,98831.72
2022-10-11T14:55:56.305Z,98834.13
2022-10-11T14:58:23.545Z,98836.56
2022-10-11T15:00:50.803Z,98832.50
2022-10-11T15:03:18.292Z,98835.03
2022-10-11T15:05:45.577Z,98829.31
2022-10-11T15:08:15.044Z,98829.81
2022-10-11T15:10:42.779Z,98825.66
2022-10-11T15:13:10.121Z,98825.34
2022-10-11T15:15:41.103Z,98837.47
2022-10-11T15:18:13.663Z,98826.09
2022-10-11T15:20:44.645Z,98833.47
2022-10-11T15:23:12.634Z,98830.22
2022-10-11T15:25:42.271Z,98836.97
2022-10-11T15:28:25.979Z,98839.56
2022-10-11T15:30:54.174Z,98836.66
2022-10-11T15:33:22.410Z,98843.72
2022-10-11T15:35:49.647Z,98853.84
2022-10-11T15:38:24.053Z,98842.09
2022-10-11T15:40:52.466Z,98854.47
2022-10-11T15:43:24.684Z,98857.19
2022-10-11T15:45:54.339Z,98861.00
2022-10-11T15:48:26.368Z,98867.16
2022-10-11T15:50:54.927Z,98864.31
2022-10-11T15:53:28.548Z,98874.97
2022-10-11T15:56:03.269Z,98875.78
2022-10-11T15:58:39.014Z,98875.53
2022-10-11T16:01:18.806Z,98877.91
2022-10-11T16:03:48.623Z,98876.00
2022-10-11T16:06:17.980Z,98880.81
2022-10-11T16:08:45.829Z,98876.91
2022-10-11T16:11:13.304Z,98885.00
2022-10-11T16:13:40.706Z,98880.25
2022-10-11T16:16:10.096Z,98880.25
2022-10-11T16:18:38.202Z,98885.50
2022-10-11T16:21:13.274Z,98896.28
2022-10-11T16:23:40.559Z,98900.84
2022-10-11T16:26:13.588Z,98893.16
2022-10-11T16:28:42.114Z,98901.00
2022-10-11T16:31:14.673Z,98899.28
2022-10-11T16:33:46.059Z,98904.19
2022-10-11T16:36:36.616Z,98904.97
2022-10-11T16:39:20.053Z,98903.94
2022-10-11T16:41:48.037Z,98912.13
2022-10-11T16:44:20.294Z,98915.38
2022-10-11T16:46:49.028Z,98912.06
2022-10-11T16:49:19.822Z,98917.97
2022-10-11T16:51:47.059Z,98921.25
2022-10-11T16:54:19.293Z,98927.38
2022-10-11T16:56:49.285Z,98923.81
2022-10-11T16:59:17.246Z,98925.66
2022-10-11T17:01:45.251Z,98929.13
2022-10-11T17:04:13.346Z,98929.97
2022-10-11T17:06:43.907Z,98923.72
2022-10-11T17:09:11.900Z,98929.25
2022-10-11T17:11:39.332Z,98927.81
2022-10-11T17:14:07.753Z,98938.34
2022-10-11T17:16:35.732Z,98932.22
2022-10-11T17:19:04.117Z,98930.63
2022-10-11T17:21:31.443Z,98935.47
2022-10-11T17:23:58.957Z,98938.19
2022-10-11T17:26:27.687Z,98937.91
2022-10-11T17:29:00.430Z,98944.22
2022-10-11T17:31:29.728Z,98943.97
2022-10-11T17:34:01.355Z,98944.75
2022-10-11T17:36:35.799Z,98945.31
2022-10-11T17:39:08.275Z,98947.88
2022-10-11T17:41:36.000Z,98957.50
2022-10-11T17:44:04.415Z,98949.00
2022-10-11T17:46:34.941Z,98955.28
2022-10-11T17:49:06.711Z,98949.97
2022-10-11T17:51:36.570Z,98947.03
2022-10-11T17:54:05.163Z,98949.91
2022-10-11T17:56:37.640Z,98952.34
2022-10-11T17:59:06.271Z,98945.06
2022-10-11T18:01:34.046Z,98947.28
2022-10-11T18:04:04.984Z,98946.84
2022-10-11T18:06:39.659Z,98949.81
2022-10-11T18:09:07.263Z,98955.59
2022-10-11T18:11:35.119Z,98962.84
2022-10-11T18:14:02.513Z,98954.44
2022-10-11T18:16:31.727Z,98956.44
2022-10-11T18:18:59.208Z,98948.97
2022-10-11T18:21:33.634Z,98962.72
2022-10-11T18:24:17.056Z,98961.69
2022-10-11T18:26:46.143Z,98965.75
2022-10-11T18:29:14.349Z,98956.50
2022-10-11T18:31:42.431Z,98954.19
2022-10-11T18:34:13.061Z,98948.41
2022-10-11T18:36:40.567Z,98953.97
2022-10-11T18:39:12.545Z,98958.56
2022-10-11T18:41:44.607Z,98955.41
2022-10-11T18:44:15.723Z,98954.03
2022-10-11T18:46:44.258Z,98952.63
2022-10-11T18:49:12.925Z,98954.50
2022-10-11T18:51:42.325Z,98955.84
2022-10-11T18:54:14.090Z,98958.84
2022-10-11T18:56:44.556Z,98957.56
2022-10-11T18:59:12.767Z,98948.31
2022-10-11T19:01:44.466Z,98955.63
2022-10-11T19:04:16.117Z,98960.22
2022-10-11T19:06:50.675Z,98964.94
2022-10-11T19:09:26.172Z,98964.47
2022-10-11T19:11:56.507Z,98964.94
2022-10-11T19:14:28.796Z,98964.94
2022-10-11T19:16:56.892Z,98961.59
2022-10-11T19:19:29.216Z,98974.13
2022-10-11T19:21:57.448Z,98968.88
2022-10-11T19:24:28.410Z,98967.28
2022-10-11T19:27:02.029Z,98969.34
2022-10-11T19:29:30.976Z,98974.78
2022-10-11T19:32:05.572Z,98972.47
2022-10-11T19:34:33.413Z,98976.09
2022-10-11T19:37:01.381Z,98971.06
2022-10-11T19:39:29.633Z,98971.16
2022-10-11T19:41:57.229Z,98978.44
2022-10-11T19:44:24.591Z,98977.78
2022-10-11T19:46:52.968Z,98979.75
2022-10-11T19:49:25.897Z,98987.06
2022-10-11T19:51:55.558Z,98992.28
2022-10-11T19:54:23.689Z,98989.09
2022-10-11T19:56:51.141Z,98985.84
2022-10-11T19:59:19.739Z,98986.09
2022-10-11T20:01:52.294Z,98990.88
2022-10-11T20:07:08.822Z,98977.56
2022-10-11T20:09:36.688Z,98981.97
2022-10-11T20:12:04.152Z,98979.72
2022-10-11T20:14:31.607Z,98983.34
2022-10-11T20:17:04.838Z,98975.84
2022-10-11T20:19:32.292Z,98975.78
2022-10-11T20:22:01.002Z,98983.94
2022-10-11T20:24:33.121Z,98984.31
2022-10-11T20:27:05.544Z,98981.03
2022-10-11T20:29:33.176Z,98987.28
2022-10-11T20:32:00.695Z,98983.94
2022-10-11T20:34:28.411Z,98992.50
2022-10-11T20:36:56.702Z,98989.91
2022-10-11T20:39:24.254Z,98995.13
2022-10-11T20:41:51.858Z,98993.25
2022-10-11T20:44:19.049Z,99001.31
2022-10-11T20:46:46.260Z,98993.56
2022-10-11T20:49:13.823Z,98992.88
2022-10-11T20:51:42.740Z,98990.34
2022-10-11T20:54:11.127Z,99000.06
2022-10-11T20:56:39.401Z,98991.38
2022-10-11T20:59:07.858Z,98988.06
2022-10-11T21:01:41.262Z,98991.72
2022-10-11T21:04:20.111Z,98992.22
2022-10-11T21:06:48.794Z,98989.72
2022-10-11T21:09:17.224Z,98989.03
2022-10-11T21:11:44.765Z,98990.22
2022-10-11T21:14:12.593Z,98992.34
2022-10-11T21:16:39.935Z,98991.59
2022-10-11T21:19:07.597Z,98996.81
2022-10-11T21:21:35.019Z,98995.97
2022-10-11T21:24:03.460Z,99002.28
2022-10-11T21:26:31.115Z,98997.25
2022-10-11T21:29:04.098Z,99000.88
2022-10-11T21:31:34.275Z,98995.66
2022-10-11T21:34:05.158Z,99012.25
2022-10-11T21:36:34.021Z,99000.19
2022-10-11T21:39:01.249Z,98997.66
2022-10-11T21:41:31.579Z,99000.38
2022-10-11T21:44:01.025Z,99001.22
2022-10-11T21:49:19.217Z,98995.47
2022-10-11T21:51:46.503Z,99000.78
2022-10-11T21:54:14.077Z,99000.78
2022-10-11T21:56:42.076Z,99000.03
2022-10-11T21:59:12.305Z,99000.28
2022-10-11T22:01:41.913Z,99000.78
2022-10-11T22:04:10.107Z,99002.47
2022-10-11T22:06:38.480Z,99002.50
2022-10-11T22:09:07.710Z,98998.09
2022-10-11T22:11:35.835Z,98998.50
2022-10-11T22:14:03.516Z,98991.63
2022-10-11T22:16:30.752Z,98993.50
2022-10-11T22:18:57.980Z,98990.13
2022-10-11T22:21:25.620Z,99001.78
2022-10-11T22:23:54.858Z,98999.50
2022-10-11T22:26:32.345Z,99005.00
2022-10-11T22:29:00.973Z,99007.47
2022-10-11T22:31:29.397Z,99008.06
2022-10-11T22:33:59.948Z,98998.47
2022-10-11T22:36:30.576Z,98994.53
2022-10-11T22:38:58.750Z,99005.94
2022-10-11T22:41:26.245Z,98999.97
2022-10-11T22:43:53.664Z,99001.66
2022-10-11T22:46:20.961Z,99000.03
2022-10-11T22:48:48.209Z,99000.13
2022-10-11T22:51:15.725Z,99000.25
2022-10-11T22:53:42.999Z,99014.31
2022-10-11T22:56:11.297Z,99003.97
2022-10-11T22:58:38.972Z,99006.66
2022-10-11T23:01:11.368Z,99003.97
2022-10-11T23:03:38.938Z,99002.28
2022-10-11T23:06:06.856Z,99000.50
2022-10-11T23:08:34.361Z,99012.00
2022-10-11T23:11:06.958Z,99007.09
2022-10-11T23:13:35.765Z,99005.34
2022-10-11T23:16:11.398Z,99003.78
2022-10-11T23:18:40.049Z,99006.56
2022-10-11T23:21:08.196Z,99000.59
2022-10-11T23:23:36.343Z,99008.53
2022-10-11T23:26:08.799Z,99008.53
2022-10-11T23:28:36.737Z,98997.44
2022-10-11T23:31:18.448Z,98997.72
2022-10-11T23:33:47.315Z,99002.09
2022-10-11T23:36:21.006Z,99007.47
2022-10-11T23:38:56.758Z,99005.94
2022-10-11T23:41:30.052Z,99004.31
2022-10-11T23:43:58.643Z,99006.34
2022-10-11T23:46:25.975Z,99010.13
2022-10-11T23:48:53.255Z,99012.00
2022-10-11T23:51:21.238Z,99013.19
2022-10-11T23:53:48.435Z,99013.34
2022-10-11T23:56:15.566Z,99015.06
2022-10-11T23:58:43.032Z,99022.88
